Las Animas, Colorado
Current Conditions -  °F | °C
As of 1:53 PM on Thursday 18 Dec 2014 (Local Time) from KLHX Reporting Station
Clear Clear  
Wind Chill: 40°   Ceiling: Unl
Heat Index: 44°   Visibility: 10mi
Dew Point: 30°   Wind: 7mph
Humidity: 58%   Direction: 100°E
Pressure: 30.02"   Gusts: NA
Location:  38.07°N, 103.22°W
Report Text: KLHX 182053Z AUTO 10006KT 10SM CLR 07/M01 A3002 RMK AO2 SLP168 T00671011 56022
Loading
Personal Weather Stations






























Interactive Weather Map New forecast layout! Learn more

10-Day Weather Forecast

Advertisements
Track Severe Weather on mobile